sensor_id;sensor_type;location;lat;lon;timestamp;pressure;altitude;pressure_sealevel;temperature;humidity
28354;BME280;15603;50.878;8.036;2023-07-28T00:00:59;146753.47;;;14.75;100.00
28354;BME280;15603;50.878;8.036;2023-07-28T00:03:26;146743.72;;;14.70;100.00
28354;BME280;15603;50.878;8.036;2023-07-28T00:05:54;146762.00;;;14.78;100.00
28354;BME280;15603;50.878;8.036;2023-07-28T00:08:21;146753.47;;;14.75;100.00
28354;BME280;15603;50.878;8.036;2023-07-28T00:10:48;146753.47;;;14.75;100.00
28354;BME280;15603;50.878;8.036;2023-07-28T00:13:15;146725.44;;;14.63;100.00
28354;BME280;15603;50.878;8.036;2023-07-28T00:15:42;146716.91;;;14.59;100.00
28354;BME280;15603;50.878;8.036;2023-07-28T00:18:09;146748.59;;;14.72;100.00
28354;BME280;15603;50.878;8.036;2023-07-28T00:20:36;146724.19;;;14.62;100.00
28354;BME280;15603;50.878;8.036;2023-07-28T00:23:03;146713.22;;;14.58;100.00
28354;BME280;15603;50.878;8.036;2023-07-28T00:25:30;146741.25;;;14.69;100.00
28354;BME280;15603;50.878;8.036;2023-07-28T00:27:57;146665.66;;;14.38;100.00
28354;BME280;15603;50.878;8.036;2023-07-28T00:30:25;146715.63;;;14.59;100.00
28354;BME280;15603;50.878;8.036;2023-07-28T00:32:53;146716.91;;;14.59;100.00
28354;BME280;15603;50.878;8.036;2023-07-28T00:35:20;146746.13;;;14.71;100.00
28354;BME280;15603;50.878;8.036;2023-07-28T00:37:47;146748.59;;;14.72;100.00
28354;BME280;15603;50.878;8.036;2023-07-28T00:40:14;146725.44;;;14.63;100.00
28354;BME280;15603;50.878;8.036;2023-07-28T00:42:42;146746.13;;;14.71;100.00
28354;BME280;15603;50.878;8.036;2023-07-28T00:45:09;146751.00;;;14.73;100.00
28354;BME280;15603;50.878;8.036;2023-07-28T00:47:36;146705.84;;;14.54;100.00
28354;BME280;15603;50.878;8.036;2023-07-28T00:50:04;146764.41;;;14.79;100.00
28354;BME280;15603;50.878;8.036;2023-07-28T00:52:31;146713.22;;;14.58;100.00
28354;BME280;15603;50.878;8.036;2023-07-28T00:54:58;146760.75;;;14.78;100.00
28354;BME280;15603;50.878;8.036;2023-07-28T00:57:26;146753.47;;;14.75;100.00
28354;BME280;15603;50.878;8.036;2023-07-28T00:59:54;146664.41;;;14.37;100.00
28354;BME280;15603;50.878;8.036;2023-07-28T01:02:21;146703.44;;;14.53;100.00
28354;BME280;15603;50.878;8.036;2023-07-28T01:04:48;146627.88;;;14.22;100.00
28354;BME280;15603;50.878;8.036;2023-07-28T01:07:23;146704.66;;;14.54;100.00
28354;BME280;15603;50.878;8.036;2023-07-28T01:10:08;146692.44;;;14.49;100.00
28354;BME280;15603;50.878;8.036;2023-07-28T01:12:38;146719.31;;;14.60;100.00
28354;BME280;15603;50.878;8.036;2023-07-28T01:15:06;146714.44;;;14.58;100.00
28354;BME280;15603;50.878;8.036;2023-07-28T01:17:33;146720.56;;;14.61;100.00
28354;BME280;15603;50.878;8.036;2023-07-28T01:20:01;146724.19;;;14.62;100.00
28354;BME280;15603;50.878;8.036;2023-07-28T01:25:28;146740.03;;;14.69;100.00
28354;BME280;15603;50.878;8.036;2023-07-28T01:28:00;146742.47;;;14.70;100.00
28354;BME280;15603;50.878;8.036;2023-07-28T01:30:28;146709.50;;;14.56;100.00
28354;BME280;15603;50.878;8.036;2023-07-28T01:32:56;146709.50;;;14.56;100.00
28354;BME280;15603;50.878;8.036;2023-07-28T01:35:25;146741.25;;;14.69;100.00
28354;BME280;15603;50.878;8.036;2023-07-28T01:37:52;146731.50;;;14.65;100.00
28354;BME280;15603;50.878;8.036;2023-07-28T01:40:20;146712.03;;;14.57;100.00
28354;BME280;15603;50.878;8.036;2023-07-28T01:42:47;146704.66;;;14.54;100.00
28354;BME280;15603;50.878;8.036;2023-07-28T01:45:14;146704.66;;;14.54;100.00
28354;BME280;15603;50.878;8.036;2023-07-28T01:47:41;146714.44;;;14.58;100.00
28354;BME280;15603;50.878;8.036;2023-07-28T01:50:09;146692.44;;;14.49;100.00
28354;BME280;15603;50.878;8.036;2023-07-28T01:52:36;146726.63;;;14.63;100.00
28354;BME280;15603;50.878;8.036;2023-07-28T01:55:03;146699.78;;;14.52;100.00
28354;BME280;15603;50.878;8.036;2023-07-28T01:57:33;146710.78;;;14.57;100.00
28354;BME280;15603;50.878;8.036;2023-07-28T02:00:01;146651.00;;;14.31;100.00
28354;BME280;15603;50.878;8.036;2023-07-28T02:02:39;146709.50;;;14.56;100.00
28354;BME280;15603;50.878;8.036;2023-07-28T02:05:06;146714.44;;;14.58;100.00
28354;BME280;15603;50.878;8.036;2023-07-28T02:07:33;146747.34;;;14.72;100.00
28354;BME280;15603;50.878;8.036;2023-07-28T02:10:00;146743.72;;;14.70;100.00
28354;BME280;15603;50.878;8.036;2023-07-28T02:12:28;146765.63;;;14.80;100.00
28354;BME280;15603;50.878;8.036;2023-07-28T02:14:55;146763.19;;;14.79;100.00
28354;BME280;15603;50.878;8.036;2023-07-28T02:17:22;146763.19;;;14.79;100.00
28354;BME280;15603;50.878;8.036;2023-07-28T02:19:49;146775.41;;;14.84;100.00
28354;BME280;15603;50.878;8.036;2023-07-28T02:22:16;146754.66;;;14.75;100.00
28354;BME280;15603;50.878;8.036;2023-07-28T02:24:44;146755.88;;;14.76;100.00
28354;BME280;15603;50.878;8.036;2023-07-28T02:27:11;146742.47;;;14.70;100.00
28354;BME280;15603;50.878;8.036;2023-07-28T02:29:38;146744.91;;;14.71;100.00
28354;BME280;15603;50.878;8.036;2023-07-28T02:32:06;146730.31;;;14.65;100.00
28354;BME280;15603;50.878;8.036;2023-07-28T02:34:33;146742.47;;;14.70;100.00
28354;BME280;15603;50.878;8.036;2023-07-28T02:37:00;146746.13;;;14.71;100.00
28354;BME280;15603;50.878;8.036;2023-07-28T02:39:27;146646.13;;;14.29;100.00
28354;BME280;15603;50.878;8.036;2023-07-28T02:41:54;146748.59;;;14.72;100.00
28354;BME280;15603;50.878;8.036;2023-07-28T02:44:21;146764.41;;;14.79;100.00
28354;BME280;15603;50.878;8.036;2023-07-28T02:46:49;146746.13;;;14.71;100.00
28354;BME280;15603;50.878;8.036;2023-07-28T02:49:16;146751.00;;;14.73;100.00
28354;BME280;15603;50.878;8.036;2023-07-28T02:51:43;146703.44;;;14.53;100.00
28354;BME280;15603;50.878;8.036;2023-07-28T02:54:10;146702.22;;;14.53;100.00
28354;BME280;15603;50.878;8.036;2023-07-28T02:56:37;146724.19;;;14.62;100.00
28354;BME280;15603;50.878;8.036;2023-07-28T02:59:09;146753.47;;;14.75;100.00
28354;BME280;15603;50.878;8.036;2023-07-28T03:01:36;146772.94;;;14.83;100.00
28354;BME280;15603;50.878;8.036;2023-07-28T03:04:04;146748.59;;;14.72;100.00
28354;BME280;15603;50.878;8.036;2023-07-28T03:06:47;146685.16;;;14.46;100.00
28354;BME280;15603;50.878;8.036;2023-07-28T03:09:15;146765.63;;;14.80;100.00
28354;BME280;15603;50.878;8.036;2023-07-28T03:11:52;146735.19;;;14.67;100.00
28354;BME280;15603;50.878;8.036;2023-07-28T03:14:19;146753.47;;;14.75;100.00
28354;BME280;15603;50.878;8.036;2023-07-28T03:16:46;146741.25;;;14.69;100.00
28354;BME280;15603;50.878;8.036;2023-07-28T03:19:14;146731.50;;;14.65;100.00
28354;BME280;15603;50.878;8.036;2023-07-28T03:21:41;146732.72;;;14.66;100.00
28354;BME280;15603;50.878;8.036;2023-07-28T03:24:08;146762.00;;;14.78;100.00
28354;BME280;15603;50.878;8.036;2023-07-28T03:26:36;146776.63;;;14.84;100.00
28354;BME280;15603;50.878;8.036;2023-07-28T03:29:04;146747.34;;;14.72;100.00
28354;BME280;15603;50.878;8.036;2023-07-28T03:31:31;146762.00;;;14.78;100.00
28354;BME280;15603;50.878;8.036;2023-07-28T03:33:59;146777.81;;;14.85;100.00
28354;BME280;15603;50.878;8.036;2023-07-28T03:36:26;146797.31;;;14.93;100.00
28354;BME280;15603;50.878;8.036;2023-07-28T03:38:54;146771.75;;;14.82;100.00
28354;BME280;15603;50.878;8.036;2023-07-28T03:41:22;146770.50;;;14.82;100.00
28354;BME280;15603;50.878;8.036;2023-07-28T03:43:49;146797.31;;;14.93;100.00
28354;BME280;15603;50.878;8.036;2023-07-28T03:46:16;146790.03;;;14.90;100.00
28354;BME280;15603;50.878;8.036;2023-07-28T03:48:43;146777.81;;;14.85;100.00
28354;BME280;15603;50.878;8.036;2023-07-28T03:51:10;146781.50;;;14.86;100.00
28354;BME280;15603;50.878;8.036;2023-07-28T03:53:37;146774.16;;;14.83;100.00
28354;BME280;15603;50.878;8.036;2023-07-28T03:56:05;146762.00;;;14.78;100.00
28354;BME280;15603;50.878;8.036;2023-07-28T03:58:33;146779.03;;;14.85;100.00
28354;BME280;15603;50.878;8.036;2023-07-28T04:01:00;146677.81;;;14.43;100.00
28354;BME280;15603;50.878;8.036;2023-07-28T04:03:27;146807.06;;;14.97;100.00
28354;BME280;15603;50.878;8.036;2023-07-28T04:05:57;146790.03;;;14.90;100.00
28354;BME280;15603;50.878;8.036;2023-07-28T04:08:24;146797.31;;;14.93;100.00
28354;BME280;15603;50.878;8.036;2023-07-28T04:10:51;146803.44;;;14.96;100.00
28354;BME280;15603;50.878;8.036;2023-07-28T04:13:19;146824.13;;;15.04;100.00
28354;BME280;15603;50.878;8.036;2023-07-28T04:15:46;146765.63;;;14.80;100.00
28354;BME280;15603;50.878;8.036;2023-07-28T04:18:13;146741.25;;;14.69;100.00
28354;BME280;15603;50.878;8.036;2023-07-28T04:20:40;146752.22;;;14.74;100.00
28354;BME280;15603;50.878;8.036;2023-07-28T04:23:07;146794.91;;;14.92;100.00
28354;BME280;15603;50.878;8.036;2023-07-28T04:25:37;146813.19;;;15.00;100.00
28354;BME280;15603;50.878;8.036;2023-07-28T04:28:05;146813.19;;;15.00;100.00
28354;BME280;15603;50.878;8.036;2023-07-28T04:30:32;146777.81;;;14.85;100.00
28354;BME280;15603;50.878;8.036;2023-07-28T04:32:59;146820.47;;;15.03;100.00
28354;BME280;15603;50.878;8.036;2023-07-28T04:35:33;146787.56;;;14.89;100.00
28354;BME280;15603;50.878;8.036;2023-07-28T04:38:12;146819.25;;;15.02;100.00
28354;BME280;15603;50.878;8.036;2023-07-28T04:40:49;146790.03;;;14.90;100.00
28354;BME280;15603;50.878;8.036;2023-07-28T04:43:21;146824.13;;;15.04;100.00
28354;BME280;15603;50.878;8.036;2023-07-28T04:45:53;146816.84;;;15.01;100.00
28354;BME280;15603;50.878;8.036;2023-07-28T04:48:22;146832.69;;;15.08;100.00
28354;BME280;15603;50.878;8.036;2023-07-28T04:50:49;146848.56;;;15.15;100.00
28354;BME280;15603;50.878;8.036;2023-07-28T04:53:34;146860.72;;;15.20;100.00
28354;BME280;15603;50.878;8.036;2023-07-28T04:56:07;146870.47;;;15.24;100.00
28354;BME280;15603;50.878;8.036;2023-07-28T04:58:35;146860.72;;;15.20;100.00
28354;BME280;15603;50.878;8.036;2023-07-28T05:01:02;146863.19;;;15.21;100.00
28354;BME280;15603;50.878;8.036;2023-07-28T05:03:31;146865.59;;;15.22;100.00
28354;BME280;15603;50.878;8.036;2023-07-28T05:06:09;146860.72;;;15.20;100.00
28354;BME280;15603;50.878;8.036;2023-07-28T05:08:37;146885.13;;;15.30;100.00
28354;BME280;15603;50.878;8.036;2023-07-28T05:11:04;146898.50;;;15.36;100.00
28354;BME280;15603;50.878;8.036;2023-07-28T05:13:32;146908.28;;;15.40;100.00
28354;BME280;15603;50.878;8.036;2023-07-28T05:15:59;146885.13;;;15.30;100.00
28354;BME280;15603;50.878;8.036;2023-07-28T05:18:46;146894.88;;;15.34;100.00
28354;BME280;15603;50.878;8.036;2023-07-28T05:21:37;146927.78;;;15.48;100.00
28354;BME280;15603;50.878;8.036;2023-07-28T05:24:04;146942.41;;;15.54;100.00
28354;BME280;15603;50.878;8.036;2023-07-28T05:26:33;146959.50;;;15.61;100.00
28354;BME280;15603;50.878;8.036;2023-07-28T05:29:00;146953.38;;;15.59;100.00
28354;BME280;15603;50.878;8.036;2023-07-28T05:31:28;146997.34;;;15.77;100.00
28354;BME280;15603;50.878;8.036;2023-07-28T05:33:55;147025.41;;;15.89;100.00
28354;BME280;15603;50.878;8.036;2023-07-28T05:36:23;146968.06;;;15.65;100.00
28354;BME280;15603;50.878;8.036;2023-07-28T05:38:53;147038.81;;;15.95;100.00
28354;BME280;15603;50.878;8.036;2023-07-28T05:41:25;147026.59;;;15.89;100.00
28354;BME280;15603;50.878;8.036;2023-07-28T05:43:53;147011.97;;;15.83;100.00
28354;BME280;15603;50.878;8.036;2023-07-28T05:46:20;147031.47;;;15.92;100.00
28354;BME280;15603;50.878;8.036;2023-07-28T05:48:47;146963.16;;;15.63;100.00
28354;BME280;15603;50.878;8.036;2023-07-28T05:51:15;147042.47;;;15.96;100.00
28354;BME280;15603;50.878;8.036;2023-07-28T05:53:43;147038.81;;;15.95;100.00
28354;BME280;15603;50.878;8.036;2023-07-28T05:56:10;147057.13;;;16.02;100.00
28354;BME280;15603;50.878;8.036;2023-07-28T05:58:37;147090.03;;;16.16;100.00
28354;BME280;15603;50.878;8.036;2023-07-28T06:01:04;147070.53;;;16.08;100.00
28354;BME280;15603;50.878;8.036;2023-07-28T06:04:09;147053.44;;;16.01;100.00
28354;BME280;15603;50.878;8.036;2023-07-28T06:06:45;147048.56;;;15.99;100.00
28354;BME280;15603;50.878;8.036;2023-07-28T06:09:14;147038.81;;;15.95;100.00
28354;BME280;15603;50.878;8.036;2023-07-28T06:11:42;147070.53;;;16.08;100.00
28354;BME280;15603;50.878;8.036;2023-07-28T06:14:09;147024.19;;;15.88;100.00
28354;BME280;15603;50.878;8.036;2023-07-28T06:16:37;147080.28;;;16.12;100.00
28354;BME280;15603;50.878;8.036;2023-07-28T06:19:04;147108.34;;;16.24;100.00
28354;BME280;15603;50.878;8.036;2023-07-28T06:21:33;147151.06;;;16.42;100.00
28354;BME280;15603;50.878;8.036;2023-07-28T06:24:01;147140.06;;;16.37;100.00
28354;BME280;15603;50.878;8.036;2023-07-28T06:26:28;147019.31;;;15.86;100.00
28354;BME280;15603;50.878;8.036;2023-07-28T06:28:55;147110.81;;;16.25;100.00
28354;BME280;15603;50.878;8.036;2023-07-28T06:31:23;147116.88;;;16.27;100.00
28354;BME280;15603;50.878;8.036;2023-07-28T06:33:50;147094.91;;;16.18;100.00
28354;BME280;15603;50.878;8.036;2023-07-28T06:36:18;147114.47;;;16.26;100.00
28354;BME280;15603;50.878;8.036;2023-07-28T06:38:45;147090.03;;;16.16;100.00
28354;BME280;15603;50.878;8.036;2023-07-28T06:41:15;147087.63;;;16.15;100.00
28354;BME280;15603;50.878;8.036;2023-07-28T06:43:44;147135.19;;;16.35;100.00
28354;BME280;15603;50.878;8.036;2023-07-28T06:46:12;147124.22;;;16.31;100.00
28354;BME280;15603;50.878;8.036;2023-07-28T06:48:39;147122.97;;;16.30;100.00
28354;BME280;15603;50.878;8.036;2023-07-28T06:51:07;147152.28;;;16.42;100.00
28354;BME280;15603;50.878;8.036;2023-07-28T06:53:34;147165.72;;;16.48;100.00
28354;BME280;15603;50.878;8.036;2023-07-28T06:56:02;147193.78;;;16.60;100.00
28354;BME280;15603;50.878;8.036;2023-07-28T06:58:29;147210.88;;;16.67;100.00
28354;BME280;15603;50.878;8.036;2023-07-28T07:00:56;147241.34;;;16.80;100.00
28354;BME280;15603;50.878;8.036;2023-07-28T07:03:25;147186.44;;;16.57;100.00
28354;BME280;15603;50.878;8.036;2023-07-28T07:05:52;147234.06;;;16.77;100.00
28354;BME280;15603;50.878;8.036;2023-07-28T07:08:19;147223.03;;;16.72;100.00
28354;BME280;15603;50.878;8.036;2023-07-28T07:10:50;147216.97;;;16.69;100.00
28354;BME280;15603;50.878;8.036;2023-07-28T07:13:17;147212.06;;;16.67;100.00
28354;BME280;15603;50.878;8.036;2023-07-28T07:15:45;147231.59;;;16.76;100.00
28354;BME280;15603;50.878;8.036;2023-07-28T07:18:12;147259.72;;;16.87;100.00
28354;BME280;15603;50.878;8.036;2023-07-28T07:20:40;147268.25;;;16.91;100.00
28354;BME280;15603;50.878;8.036;2023-07-28T07:23:07;147311.00;;;17.09;100.00
28354;BME280;15603;50.878;8.036;2023-07-28T07:25:34;147350.03;;;17.25;100.00
28354;BME280;15603;50.878;8.036;2023-07-28T07:28:03;147351.25;;;17.26;100.00
28354;BME280;15603;50.878;8.036;2023-07-28T07:30:33;147331.72;;;17.18;100.00
28354;BME280;15603;50.878;8.036;2023-07-28T07:33:01;147351.25;;;17.26;100.00
28354;BME280;15603;50.878;8.036;2023-07-28T07:35:28;147369.56;;;17.34;100.00
28354;BME280;15603;50.878;8.036;2023-07-28T07:37:55;147361.03;;;17.30;100.00
28354;BME280;15603;50.878;8.036;2023-07-28T07:40:22;147363.47;;;17.31;100.00
28354;BME280;15603;50.878;8.036;2023-07-28T07:42:53;147379.34;;;17.38;100.00
28354;BME280;15603;50.878;8.036;2023-07-28T07:45:20;147385.47;;;17.40;100.00
28354;BME280;15603;50.878;8.036;2023-07-28T07:47:47;147440.41;;;17.63;100.00
28354;BME280;15603;50.878;8.036;2023-07-28T07:50:15;147456.28;;;17.70;100.00
28354;BME280;15603;50.878;8.036;2023-07-28T07:52:42;147407.47;;;17.50;100.00
28354;BME280;15603;50.878;8.036;2023-07-28T07:55:10;147428.19;;;17.58;100.00
28354;BME280;15603;50.878;8.036;2023-07-28T07:57:40;147431.88;;;17.60;100.00
28354;BME280;15603;50.878;8.036;2023-07-28T08:00:08;147414.75;;;17.53;100.00
28354;BME280;15603;50.878;8.036;2023-07-28T08:02:41;147446.50;;;17.66;100.00
28354;BME280;15603;50.878;8.036;2023-07-28T08:05:12;147497.84;;;17.88;100.00
28354;BME280;15603;50.878;8.036;2023-07-28T08:07:39;147495.41;;;17.87;100.00
28354;BME280;15603;50.878;8.036;2023-07-28T08:10:08;147497.84;;;17.88;100.00
28354;BME280;15603;50.878;8.036;2023-07-28T08:12:35;147423.31;;;17.56;100.00
28354;BME280;15603;50.878;8.036;2023-07-28T08:15:02;147485.59;;;17.82;100.00
28354;BME280;15603;50.878;8.036;2023-07-28T08:17:29;147549.16;;;18.09;100.00
28354;BME280;15603;50.878;8.036;2023-07-28T08:19:56;147545.50;;;18.08;100.00
28354;BME280;15603;50.878;8.036;2023-07-28T08:22:23;147544.25;;;18.07;100.00
28354;BME280;15603;50.878;8.036;2023-07-28T08:24:52;147507.59;;;17.92;100.00
28354;BME280;15603;50.878;8.036;2023-07-28T08:27:19;147414.75;;;17.53;100.00
28354;BME280;15603;50.878;8.036;2023-07-28T08:29:46;147475.84;;;17.78;100.00
28354;BME280;15603;50.878;8.036;2023-07-28T08:32:13;147462.41;;;17.73;100.00
28354;BME280;15603;50.878;8.036;2023-07-28T08:34:40;147455.06;;;17.70;100.00
28354;BME280;15603;50.878;8.036;2023-07-28T08:37:08;147426.97;;;17.58;100.00
28354;BME280;15603;50.878;8.036;2023-07-28T08:39:35;147491.75;;;17.85;100.00
28354;BME280;15603;50.878;8.036;2023-07-28T08:42:03;147451.38;;;17.68;100.00
28354;BME280;15603;50.878;8.036;2023-07-28T08:44:34;147568.69;;;18.17;100.00
28354;BME280;15603;50.878;8.036;2023-07-28T08:47:03;147602.88;;;18.32;100.00
28354;BME280;15603;50.878;8.036;2023-07-28T08:49:33;147599.22;;;18.30;100.00
28354;BME280;15603;50.878;8.036;2023-07-28T08:52:04;147593.13;;;18.28;100.00
28354;BME280;15603;50.878;8.036;2023-07-28T08:54:32;147605.34;;;18.33;100.00
28354;BME280;15603;50.878;8.036;2023-07-28T08:56:59;147656.66;;;18.54;100.00
28354;BME280;15603;50.878;8.036;2023-07-28T08:59:28;147679.88;;;18.64;100.00
28354;BME280;15603;50.878;8.036;2023-07-28T09:01:57;147678.66;;;18.63;100.00
28354;BME280;15603;50.878;8.036;2023-07-28T09:04:27;147673.78;;;18.61;100.00
28354;BME280;15603;50.878;8.036;2023-07-28T09:06:55;147572.38;;;18.19;100.00
28354;BME280;15603;50.878;8.036;2023-07-28T09:09:22;147517.41;;;17.96;100.00
28354;BME280;15603;50.878;8.036;2023-07-28T09:11:51;147550.38;;;18.10;100.00
28354;BME280;15603;50.878;8.036;2023-07-28T09:14:20;147511.28;;;17.93;100.00
28354;BME280;15603;50.878;8.036;2023-07-28T09:16:47;147517.41;;;17.96;100.00
28354;BME280;15603;50.878;8.036;2023-07-28T09:19:15;147556.47;;;18.12;100.00
28354;BME280;15603;50.878;8.036;2023-07-28T09:21:43;147543.03;;;18.07;100.00
28354;BME280;15603;50.878;8.036;2023-07-28T09:24:13;147600.47;;;18.31;100.00
28354;BME280;15603;50.878;8.036;2023-07-28T09:26:44;147673.78;;;18.61;100.00
28354;BME280;15603;50.878;8.036;2023-07-28T09:29:17;147813.13;;;19.20;100.00
28354;BME280;15603;50.878;8.036;2023-07-28T09:31:45;147913.38;;;19.62;100.00
28354;BME280;15603;50.878;8.036;2023-07-28T09:34:13;147921.94;;;19.66;100.00
28354;BME280;15603;50.878;8.036;2023-07-28T09:36:49;147923.16;;;19.66;100.00
28354;BME280;15603;50.878;8.036;2023-07-28T09:39:19;147942.75;;;19.74;100.00
28354;BME280;15603;50.878;8.036;2023-07-28T09:41:47;147871.81;;;19.45;100.00
28354;BME280;15603;50.878;8.036;2023-07-28T09:44:15;147844.91;;;19.33;100.00
28354;BME280;15603;50.878;8.036;2023-07-28T09:46:54;147837.53;;;19.30;100.00
28354;BME280;15603;50.878;8.036;2023-07-28T09:49:37;147962.34;;;19.83;100.00
28354;BME280;15603;50.878;8.036;2023-07-28T09:52:08;147908.47;;;19.60;100.00
28354;BME280;15603;50.878;8.036;2023-07-28T09:54:39;147908.47;;;19.60;100.00
28354;BME280;15603;50.878;8.036;2023-07-28T09:57:14;147967.22;;;19.85;100.00
28354;BME280;15603;50.878;8.036;2023-07-28T09:59:47;147928.03;;;19.68;100.00
28354;BME280;15603;50.878;8.036;2023-07-28T10:02:14;147885.25;;;19.50;100.00
28354;BME280;15603;50.878;8.036;2023-07-28T10:04:41;147884.03;;;19.50;100.00
28354;BME280;15603;50.878;8.036;2023-07-28T10:07:09;147918.25;;;19.64;100.00
28354;BME280;15603;50.878;8.036;2023-07-28T10:09:37;147921.94;;;19.66;100.00
28354;BME280;15603;50.878;8.036;2023-07-28T10:12:05;147932.91;;;19.70;100.00
28354;BME280;15603;50.878;8.036;2023-07-28T10:14:35;147932.91;;;19.70;100.00
28354;BME280;15603;50.878;8.036;2023-07-28T10:17:05;147923.16;;;19.66;100.00
28354;BME280;15603;50.878;8.036;2023-07-28T10:19:36;147958.66;;;19.81;100.00
28354;BME280;15603;50.878;8.036;2023-07-28T10:22:08;147957.44;;;19.80;100.00
28354;BME280;15603;50.878;8.036;2023-07-28T10:24:55;147866.91;;;19.42;100.00
28354;BME280;15603;50.878;8.036;2023-07-28T10:27:34;147808.22;;;19.18;100.00
28354;BME280;15603;50.878;8.036;2023-07-28T10:30:09;147709.19;;;18.76;100.00
28354;BME280;15603;50.878;8.036;2023-07-28T10:32:38;147747.13;;;18.92;100.00
28354;BME280;15603;50.878;8.036;2023-07-28T10:35:30;147771.56;;;19.02;100.00
28354;BME280;15603;50.878;8.036;2023-07-28T10:37:58;147800.88;;;19.15;100.00
28354;BME280;15603;50.878;8.036;2023-07-28T10:40:45;147897.50;;;19.55;100.00
28354;BME280;15603;50.878;8.036;2023-07-28T10:43:13;148001.44;;;19.99;100.00
28354;BME280;15603;50.878;8.036;2023-07-28T10:45:40;148109.09;;;20.44;100.00
28354;BME280;15603;50.878;8.036;2023-07-28T10:48:09;148177.66;;;20.73;100.00
28354;BME280;15603;50.878;8.036;2023-07-28T10:50:36;148224.13;;;20.92;100.00
28354;BME280;15603;50.878;8.036;2023-07-28T10:53:03;148158.03;;;20.65;100.00
28354;BME280;15603;50.878;8.036;2023-07-28T10:55:30;148253.50;;;21.05;100.00
28354;BME280;15603;50.878;8.036;2023-07-28T10:57:57;148232.72;;;20.96;100.00
28354;BME280;15603;50.878;8.036;2023-07-28T11:00:25;148118.88;;;20.48;100.00
28354;BME280;15603;50.878;8.036;2023-07-28T11:02:53;148136.00;;;20.55;100.00
28354;BME280;15603;50.878;8.036;2023-07-28T11:05:26;148094.38;;;20.38;100.00
28354;BME280;15603;50.878;8.036;2023-07-28T11:07:55;148098.06;;;20.39;100.00
28354;BME280;15603;50.878;8.036;2023-07-28T11:10:24;148063.84;;;20.25;100.00
28354;BME280;15603;50.878;8.036;2023-07-28T11:12:52;148165.41;;;20.68;97.35
28354;BME280;15603;50.878;8.036;2023-07-28T11:15:19;148233.91;;;20.96;97.75
28354;BME280;15603;50.878;8.036;2023-07-28T11:17:50;148313.44;;;21.30;99.48
28354;BME280;15603;50.878;8.036;2023-07-28T11:20:19;148307.34;;;21.27;97.17
28354;BME280;15603;50.878;8.036;2023-07-28T11:22:54;148291.41;;;21.21;96.74
28354;BME280;15603;50.878;8.036;2023-07-28T11:25:24;148312.22;;;21.29;97.69
28354;BME280;15603;50.878;8.036;2023-07-28T11:27:52;148270.63;;;21.12;98.25
28354;BME280;15603;50.878;8.036;2023-07-28T11:30:19;148279.22;;;21.15;97.91
28354;BME280;15603;50.878;8.036;2023-07-28T11:32:48;148258.38;;;21.07;96.06
28354;BME280;15603;50.878;8.036;2023-07-28T11:35:19;148317.13;;;21.31;95.16
28354;BME280;15603;50.878;8.036;2023-07-28T11:37:49;148284.09;;;21.17;95.35
28354;BME280;15603;50.878;8.036;2023-07-28T11:40:19;148331.81;;;21.37;94.91
28354;BME280;15603;50.878;8.036;2023-07-28T11:42:49;148347.78;;;21.44;94.02
28354;BME280;15603;50.878;8.036;2023-07-28T11:45:18;148301.19;;;21.25;95.13
28354;BME280;15603;50.878;8.036;2023-07-28T11:48:00;148346.53;;;21.44;93.89
28354;BME280;15603;50.878;8.036;2023-07-28T11:50:30;148324.50;;;21.34;95.73
28354;BME280;15603;50.878;8.036;2023-07-28T11:53:00;148309.78;;;21.28;99.26
28354;BME280;15603;50.878;8.036;2023-07-28T11:55:29;148236.34;;;20.97;96.51
28354;BME280;15603;50.878;8.036;2023-07-28T11:57:56;148337.91;;;21.40;96.10
28354;BME280;15603;50.878;8.036;2023-07-28T12:00:31;148315.91;;;21.31;93.85
28354;BME280;15603;50.878;8.036;2023-07-28T12:03:08;148299.97;;;21.24;96.37
28354;BME280;15603;50.878;8.036;2023-07-28T12:05:59;148276.72;;;21.14;98.28
28354;BME280;15603;50.878;8.036;2023-07-28T12:08:40;148231.44;;;20.95;98.63
28354;BME280;15603;50.878;8.036;2023-07-28T12:11:13;148317.13;;;21.31;99.06
28354;BME280;15603;50.878;8.036;2023-07-28T12:13:48;148275.53;;;21.14;100.00
28354;BME280;15603;50.878;8.036;2023-07-28T12:16:37;148349.00;;;21.45;100.00
28354;BME280;15603;50.878;8.036;2023-07-28T12:19:08;148366.16;;;21.52;100.00
28354;BME280;15603;50.878;8.036;2023-07-28T12:21:36;148454.28;;;21.89;99.25
28354;BME280;15603;50.878;8.036;2023-07-28T12:24:04;148396.72;;;21.65;100.00
28354;BME280;15603;50.878;8.036;2023-07-28T12:26:34;148462.84;;;21.92;95.74
28354;BME280;15603;50.878;8.036;2023-07-28T12:29:06;148428.56;;;21.78;95.83
28354;BME280;15603;50.878;8.036;2023-07-28T12:31:36;148277.94;;;21.15;98.73
28354;BME280;15603;50.878;8.036;2023-07-28T12:34:06;148258.38;;;21.07;99.44
28354;BME280;15603;50.878;8.036;2023-07-28T12:36:33;148287.78;;;21.19;99.31
28354;BME280;15603;50.878;8.036;2023-07-28T12:39:03;148284.09;;;21.17;99.16
28354;BME280;15603;50.878;8.036;2023-07-28T12:41:50;148344.06;;;21.43;100.00
28354;BME280;15603;50.878;8.036;2023-07-28T12:44:20;148317.13;;;21.31;100.00
28354;BME280;15603;50.878;8.036;2023-07-28T12:47:08;148315.91;;;21.31;100.00
28354;BME280;15603;50.878;8.036;2023-07-28T12:49:35;148290.19;;;21.20;100.00
28354;BME280;15603;50.878;8.036;2023-07-28T12:52:05;148417.53;;;21.73;99.48
28354;BME280;15603;50.878;8.036;2023-07-28T12:54:34;148344.06;;;21.43;100.00